sensor_id;sensor_type;location;lat;lon;timestamp;P1;durP1;ratioP1;P2;durP2;ratioP2
76818;SDS011;65772;51.096;17.006;2023-05-24T00:00:18;10.10;;;6.30;;
76818;SDS011;65772;51.096;17.006;2023-05-24T00:02:49;7.90;;;5.80;;
76818;SDS011;65772;51.096;17.006;2023-05-24T00:05:20;7.90;;;6.00;;
76818;SDS011;65772;51.096;17.006;2023-05-24T00:07:51;7.90;;;5.70;;
76818;SDS011;65772;51.096;17.006;2023-05-24T00:10:21;10.00;;;7.00;;
76818;SDS011;65772;51.096;17.006;2023-05-24T00:12:52;8.20;;;5.60;;
76818;SDS011;65772;51.096;17.006;2023-05-24T00:15:22;9.20;;;5.40;;
76818;SDS011;65772;51.096;17.006;2023-05-24T00:17:53;6.30;;;4.00;;
76818;SDS011;65772;51.096;17.006;2023-05-24T00:20:23;5.70;;;3.30;;
76818;SDS011;65772;51.096;17.006;2023-05-24T00:22:54;4.30;;;2.60;;
76818;SDS011;65772;51.096;17.006;2023-05-24T00:25:25;3.90;;;2.10;;
76818;SDS011;65772;51.096;17.006;2023-05-24T00:27:55;4.40;;;2.30;;
76818;SDS011;65772;51.096;17.006;2023-05-24T00:30:26;3.60;;;2.10;;
76818;SDS011;65772;51.096;17.006;2023-05-24T00:32:57;3.50;;;1.80;;
76818;SDS011;65772;51.096;17.006;2023-05-24T00:35:30;4.60;;;1.60;;
76818;SDS011;65772;51.096;17.006;2023-05-24T00:38:00;3.40;;;1.70;;
76818;SDS011;65772;51.096;17.006;2023-05-24T00:40:31;5.50;;;1.40;;
76818;SDS011;65772;51.096;17.006;2023-05-24T00:43:02;2.80;;;1.30;;
76818;SDS011;65772;51.096;17.006;2023-05-24T00:45:32;5.90;;;1.50;;
76818;SDS011;65772;51.096;17.006;2023-05-24T00:48:05;3.80;;;1.40;;
76818;SDS011;65772;51.096;17.006;2023-05-24T00:50:35;2.90;;;1.20;;
76818;SDS011;65772;51.096;17.006;2023-05-24T00:55:39;1.60;;;1.10;;
76818;SDS011;65772;51.096;17.006;2023-05-24T00:58:10;2.60;;;0.90;;
76818;SDS011;65772;51.096;17.006;2023-05-24T01:00:41;3.10;;;1.00;;
76818;SDS011;65772;51.096;17.006;2023-05-24T01:03:13;2.40;;;1.00;;
76818;SDS011;65772;51.096;17.006;2023-05-24T01:05:46;2.00;;;1.10;;
76818;SDS011;65772;51.096;17.006;2023-05-24T01:08:18;3.20;;;1.00;;
76818;SDS011;65772;51.096;17.006;2023-05-24T01:11:07;1.90;;;1.00;;
76818;SDS011;65772;51.096;17.006;2023-05-24T01:13:47;1.90;;;0.90;;
76818;SDS011;65772;51.096;17.006;2023-05-24T01:16:23;2.10;;;0.90;;
76818;SDS011;65772;51.096;17.006;2023-05-24T01:19:01;1.70;;;0.90;;
76818;SDS011;65772;51.096;17.006;2023-05-24T01:21:44;1.80;;;0.90;;
76818;SDS011;65772;51.096;17.006;2023-05-24T01:24:28;1.60;;;1.00;;
76818;SDS011;65772;51.096;17.006;2023-05-24T01:27:10;2.30;;;1.30;;
76818;SDS011;65772;51.096;17.006;2023-05-24T01:29:42;2.80;;;1.20;;
76818;SDS011;65772;51.096;17.006;2023-05-24T01:32:20;2.70;;;1.20;;
76818;SDS011;65772;51.096;17.006;2023-05-24T01:34:51;2.00;;;1.00;;
76818;SDS011;65772;51.096;17.006;2023-05-24T01:37:22;3.60;;;1.10;;
76818;SDS011;65772;51.096;17.006;2023-05-24T01:39:52;2.40;;;1.20;;
76818;SDS011;65772;51.096;17.006;2023-05-24T01:42:25;1.70;;;0.90;;
76818;SDS011;65772;51.096;17.006;2023-05-24T01:45:03;2.50;;;1.30;;
76818;SDS011;65772;51.096;17.006;2023-05-24T01:47:45;1.80;;;1.00;;
76818;SDS011;65772;51.096;17.006;2023-05-24T01:50:27;1.90;;;1.00;;
76818;SDS011;65772;51.096;17.006;2023-05-24T01:53:01;2.80;;;1.00;;
76818;SDS011;65772;51.096;17.006;2023-05-24T01:55:34;3.40;;;1.30;;
76818;SDS011;65772;51.096;17.006;2023-05-24T01:58:07;3.60;;;1.80;;
76818;SDS011;65772;51.096;17.006;2023-05-24T02:00:41;7.80;;;1.90;;
76818;SDS011;65772;51.096;17.006;2023-05-24T02:03:13;4.60;;;1.80;;
76818;SDS011;65772;51.096;17.006;2023-05-24T02:05:45;5.20;;;2.40;;
76818;SDS011;65772;51.096;17.006;2023-05-24T02:08:16;4.60;;;2.00;;
76818;SDS011;65772;51.096;17.006;2023-05-24T02:10:46;5.00;;;1.80;;
76818;SDS011;65772;51.096;17.006;2023-05-24T02:13:18;5.40;;;3.00;;
76818;SDS011;65772;51.096;17.006;2023-05-24T02:15:48;4.90;;;1.90;;
76818;SDS011;65772;51.096;17.006;2023-05-24T02:18:20;6.00;;;2.30;;
76818;SDS011;65772;51.096;17.006;2023-05-24T02:20:50;5.20;;;1.80;;
76818;SDS011;65772;51.096;17.006;2023-05-24T02:23:22;5.80;;;1.90;;
76818;SDS011;65772;51.096;17.006;2023-05-24T02:25:53;4.90;;;1.80;;
76818;SDS011;65772;51.096;17.006;2023-05-24T02:28:25;4.30;;;1.40;;
76818;SDS011;65772;51.096;17.006;2023-05-24T02:30:58;3.10;;;1.30;;
76818;SDS011;65772;51.096;17.006;2023-05-24T02:33:29;4.20;;;1.70;;
76818;SDS011;65772;51.096;17.006;2023-05-24T02:36:00;3.80;;;1.80;;
76818;SDS011;65772;51.096;17.006;2023-05-24T02:38:31;5.50;;;1.90;;
76818;SDS011;65772;51.096;17.006;2023-05-24T02:41:01;2.60;;;1.30;;
76818;SDS011;65772;51.096;17.006;2023-05-24T02:43:32;4.50;;;1.40;;
76818;SDS011;65772;51.096;17.006;2023-05-24T02:46:02;4.00;;;1.50;;
76818;SDS011;65772;51.096;17.006;2023-05-24T02:48:33;3.70;;;1.50;;
76818;SDS011;65772;51.096;17.006;2023-05-24T02:51:04;5.90;;;1.70;;
76818;SDS011;65772;51.096;17.006;2023-05-24T02:53:34;3.50;;;1.50;;
76818;SDS011;65772;51.096;17.006;2023-05-24T02:56:05;4.10;;;1.60;;
76818;SDS011;65772;51.096;17.006;2023-05-24T02:58:37;4.50;;;1.80;;
76818;SDS011;65772;51.096;17.006;2023-05-24T03:01:08;3.50;;;1.40;;
76818;SDS011;65772;51.096;17.006;2023-05-24T03:03:39;3.30;;;1.50;;
76818;SDS011;65772;51.096;17.006;2023-05-24T03:06:10;5.90;;;1.60;;
76818;SDS011;65772;51.096;17.006;2023-05-24T03:08:42;3.80;;;1.40;;
76818;SDS011;65772;51.096;17.006;2023-05-24T03:11:12;5.60;;;1.90;;
76818;SDS011;65772;51.096;17.006;2023-05-24T03:13:43;7.50;;;2.20;;
76818;SDS011;65772;51.096;17.006;2023-05-24T03:16:14;3.80;;;1.50;;
76818;SDS011;65772;51.096;17.006;2023-05-24T03:18:47;4.70;;;1.80;;
76818;SDS011;65772;51.096;17.006;2023-05-24T03:21:18;3.80;;;1.80;;
76818;SDS011;65772;51.096;17.006;2023-05-24T03:23:50;5.10;;;1.90;;
76818;SDS011;65772;51.096;17.006;2023-05-24T03:26:20;5.10;;;1.90;;
76818;SDS011;65772;51.096;17.006;2023-05-24T03:28:51;5.00;;;1.90;;
76818;SDS011;65772;51.096;17.006;2023-05-24T03:31:27;4.30;;;1.80;;
76818;SDS011;65772;51.096;17.006;2023-05-24T03:33:58;6.80;;;1.60;;
76818;SDS011;65772;51.096;17.006;2023-05-24T03:36:29;4.20;;;1.50;;
76818;SDS011;65772;51.096;17.006;2023-05-24T03:38:59;3.80;;;1.80;;
76818;SDS011;65772;51.096;17.006;2023-05-24T03:41:33;3.50;;;1.60;;
76818;SDS011;65772;51.096;17.006;2023-05-24T03:44:04;4.00;;;1.70;;
76818;SDS011;65772;51.096;17.006;2023-05-24T03:46:35;3.20;;;1.40;;
76818;SDS011;65772;51.096;17.006;2023-05-24T03:49:06;2.80;;;1.40;;
76818;SDS011;65772;51.096;17.006;2023-05-24T03:51:37;5.20;;;1.60;;
76818;SDS011;65772;51.096;17.006;2023-05-24T03:54:08;3.10;;;1.40;;
76818;SDS011;65772;51.096;17.006;2023-05-24T03:56:41;4.00;;;1.40;;
76818;SDS011;65772;51.096;17.006;2023-05-24T03:59:11;5.00;;;1.50;;
76818;SDS011;65772;51.096;17.006;2023-05-24T04:01:42;4.80;;;1.80;;
76818;SDS011;65772;51.096;17.006;2023-05-24T04:04:14;3.20;;;1.40;;
76818;SDS011;65772;51.096;17.006;2023-05-24T04:06:45;4.30;;;1.40;;
76818;SDS011;65772;51.096;17.006;2023-05-24T04:09:16;3.10;;;1.50;;
76818;SDS011;65772;51.096;17.006;2023-05-24T04:11:47;3.10;;;1.40;;
76818;SDS011;65772;51.096;17.006;2023-05-24T04:14:17;2.40;;;1.40;;
76818;SDS011;65772;51.096;17.006;2023-05-24T04:16:48;3.40;;;1.70;;
76818;SDS011;65772;51.096;17.006;2023-05-24T04:21:49;3.10;;;1.50;;
76818;SDS011;65772;51.096;17.006;2023-05-24T04:24:20;3.30;;;1.40;;
76818;SDS011;65772;51.096;17.006;2023-05-24T04:26:50;5.50;;;1.60;;
76818;SDS011;65772;51.096;17.006;2023-05-24T04:29:21;5.00;;;1.70;;
76818;SDS011;65772;51.096;17.006;2023-05-24T04:34:24;5.30;;;2.20;;
76818;SDS011;65772;51.096;17.006;2023-05-24T04:37:00;3.60;;;1.70;;
76818;SDS011;65772;51.096;17.006;2023-05-24T04:39:31;5.60;;;2.10;;
76818;SDS011;65772;51.096;17.006;2023-05-24T04:42:01;5.90;;;2.20;;
76818;SDS011;65772;51.096;17.006;2023-05-24T04:44:32;4.90;;;2.30;;
76818;SDS011;65772;51.096;17.006;2023-05-24T04:47:03;4.80;;;2.60;;
76818;SDS011;65772;51.096;17.006;2023-05-24T04:49:35;6.00;;;2.70;;
76818;SDS011;65772;51.096;17.006;2023-05-24T04:52:07;6.40;;;2.30;;
76818;SDS011;65772;51.096;17.006;2023-05-24T04:54:37;5.10;;;2.30;;
76818;SDS011;65772;51.096;17.006;2023-05-24T04:57:08;4.60;;;1.90;;
76818;SDS011;65772;51.096;17.006;2023-05-24T04:59:38;5.60;;;2.30;;
76818;SDS011;65772;51.096;17.006;2023-05-24T05:02:09;5.50;;;2.40;;
76818;SDS011;65772;51.096;17.006;2023-05-24T05:04:40;6.00;;;2.40;;
76818;SDS011;65772;51.096;17.006;2023-05-24T05:07:11;7.70;;;2.50;;
76818;SDS011;65772;51.096;17.006;2023-05-24T05:09:41;5.00;;;2.40;;
76818;SDS011;65772;51.096;17.006;2023-05-24T05:12:11;8.80;;;2.40;;
76818;SDS011;65772;51.096;17.006;2023-05-24T05:14:42;8.00;;;2.40;;
76818;SDS011;65772;51.096;17.006;2023-05-24T05:17:13;5.90;;;2.20;;
76818;SDS011;65772;51.096;17.006;2023-05-24T05:19:44;5.20;;;2.40;;
76818;SDS011;65772;51.096;17.006;2023-05-24T05:22:14;5.40;;;2.20;;
76818;SDS011;65772;51.096;17.006;2023-05-24T05:24:45;5.10;;;2.10;;
76818;SDS011;65772;51.096;17.006;2023-05-24T05:27:15;5.40;;;2.20;;
76818;SDS011;65772;51.096;17.006;2023-05-24T05:29:46;4.80;;;2.30;;
76818;SDS011;65772;51.096;17.006;2023-05-24T05:32:17;5.50;;;2.40;;
76818;SDS011;65772;51.096;17.006;2023-05-24T05:34:48;4.60;;;2.40;;
76818;SDS011;65772;51.096;17.006;2023-05-24T05:37:18;4.50;;;2.10;;
76818;SDS011;65772;51.096;17.006;2023-05-24T05:39:49;5.00;;;2.40;;
76818;SDS011;65772;51.096;17.006;2023-05-24T05:42:19;8.00;;;2.30;;
76818;SDS011;65772;51.096;17.006;2023-05-24T05:44:50;6.00;;;2.70;;
76818;SDS011;65772;51.096;17.006;2023-05-24T05:47:20;6.80;;;2.60;;
76818;SDS011;65772;51.096;17.006;2023-05-24T05:49:51;7.10;;;3.00;;
76818;SDS011;65772;51.096;17.006;2023-05-24T05:52:22;7.90;;;2.90;;
76818;SDS011;65772;51.096;17.006;2023-05-24T05:54:52;8.30;;;3.10;;
76818;SDS011;65772;51.096;17.006;2023-05-24T05:57:23;7.70;;;2.90;;
76818;SDS011;65772;51.096;17.006;2023-05-24T05:59:53;7.60;;;3.50;;
76818;SDS011;65772;51.096;17.006;2023-05-24T06:02:24;7.40;;;3.10;;
76818;SDS011;65772;51.096;17.006;2023-05-24T06:04:55;7.30;;;3.00;;
76818;SDS011;65772;51.096;17.006;2023-05-24T06:07:26;9.50;;;3.60;;
76818;SDS011;65772;51.096;17.006;2023-05-24T06:09:58;7.70;;;3.00;;
76818;SDS011;65772;51.096;17.006;2023-05-24T06:12:29;9.30;;;3.70;;
76818;SDS011;65772;51.096;17.006;2023-05-24T06:15:00;7.50;;;2.80;;
76818;SDS011;65772;51.096;17.006;2023-05-24T06:17:33;9.10;;;3.40;;
76818;SDS011;65772;51.096;17.006;2023-05-24T06:20:04;10.40;;;2.90;;
76818;SDS011;65772;51.096;17.006;2023-05-24T06:22:38;8.80;;;2.90;;
76818;SDS011;65772;51.096;17.006;2023-05-24T06:25:09;7.20;;;2.70;;
76818;SDS011;65772;51.096;17.006;2023-05-24T06:27:42;11.00;;;3.50;;
76818;SDS011;65772;51.096;17.006;2023-05-24T06:30:13;15.40;;;3.60;;
76818;SDS011;65772;51.096;17.006;2023-05-24T06:32:44;10.40;;;3.10;;
76818;SDS011;65772;51.096;17.006;2023-05-24T06:35:14;10.60;;;3.00;;
76818;SDS011;65772;51.096;17.006;2023-05-24T06:37:45;8.30;;;2.90;;
76818;SDS011;65772;51.096;17.006;2023-05-24T06:40:15;10.00;;;2.80;;
76818;SDS011;65772;51.096;17.006;2023-05-24T06:42:46;9.20;;;3.20;;
76818;SDS011;65772;51.096;17.006;2023-05-24T06:45:17;13.20;;;2.50;;
76818;SDS011;65772;51.096;17.006;2023-05-24T06:47:47;8.50;;;3.00;;
76818;SDS011;65772;51.096;17.006;2023-05-24T06:50:18;9.40;;;2.80;;
76818;SDS011;65772;51.096;17.006;2023-05-24T06:52:49;12.10;;;3.00;;
76818;SDS011;65772;51.096;17.006;2023-05-24T06:55:19;9.30;;;2.70;;
76818;SDS011;65772;51.096;17.006;2023-05-24T06:57:50;11.70;;;3.00;;
76818;SDS011;65772;51.096;17.006;2023-05-24T07:00:21;14.50;;;3.30;;
76818;SDS011;65772;51.096;17.006;2023-05-24T07:02:52;12.60;;;3.30;;
76818;SDS011;65772;51.096;17.006;2023-05-24T07:05:24;10.60;;;3.10;;
76818;SDS011;65772;51.096;17.006;2023-05-24T07:07:54;11.70;;;4.00;;
76818;SDS011;65772;51.096;17.006;2023-05-24T07:10:25;11.00;;;2.80;;
76818;SDS011;65772;51.096;17.006;2023-05-24T07:12:55;7.10;;;2.80;;
76818;SDS011;65772;51.096;17.006;2023-05-24T07:15:26;9.40;;;3.20;;
76818;SDS011;65772;51.096;17.006;2023-05-24T07:17:56;9.00;;;2.70;;
76818;SDS011;65772;51.096;17.006;2023-05-24T07:20:27;10.90;;;3.50;;
76818;SDS011;65772;51.096;17.006;2023-05-24T07:22:57;9.40;;;3.40;;
76818;SDS011;65772;51.096;17.006;2023-05-24T07:25:28;10.70;;;3.10;;
76818;SDS011;65772;51.096;17.006;2023-05-24T07:27:59;8.30;;;3.10;;
76818;SDS011;65772;51.096;17.006;2023-05-24T07:30:30;11.50;;;3.70;;
76818;SDS011;65772;51.096;17.006;2023-05-24T07:33:00;9.50;;;3.40;;
76818;SDS011;65772;51.096;17.006;2023-05-24T07:35:31;8.20;;;3.10;;
76818;SDS011;65772;51.096;17.006;2023-05-24T07:38:01;9.90;;;4.20;;
76818;SDS011;65772;51.096;17.006;2023-05-24T07:40:32;11.60;;;3.70;;
76818;SDS011;65772;51.096;17.006;2023-05-24T07:43:02;12.90;;;4.10;;
76818;SDS011;65772;51.096;17.006;2023-05-24T07:45:33;10.10;;;3.90;;
76818;SDS011;65772;51.096;17.006;2023-05-24T07:48:04;15.60;;;4.80;;
76818;SDS011;65772;51.096;17.006;2023-05-24T07:50:34;11.00;;;3.70;;
76818;SDS011;65772;51.096;17.006;2023-05-24T07:53:05;12.60;;;4.20;;
76818;SDS011;65772;51.096;17.006;2023-05-24T07:55:36;9.70;;;4.60;;
76818;SDS011;65772;51.096;17.006;2023-05-24T07:58:07;15.00;;;4.90;;
76818;SDS011;65772;51.096;17.006;2023-05-24T08:00:37;13.30;;;4.70;;
76818;SDS011;65772;51.096;17.006;2023-05-24T08:03:08;12.90;;;5.10;;
76818;SDS011;65772;51.096;17.006;2023-05-24T08:05:41;11.40;;;4.70;;
76818;SDS011;65772;51.096;17.006;2023-05-24T08:08:12;15.80;;;5.40;;
76818;SDS011;65772;51.096;17.006;2023-05-24T08:10:43;11.50;;;4.80;;
76818;SDS011;65772;51.096;17.006;2023-05-24T08:13:13;11.40;;;4.20;;
76818;SDS011;65772;51.096;17.006;2023-05-24T08:15:44;12.20;;;4.10;;
76818;SDS011;65772;51.096;17.006;2023-05-24T08:18:15;13.50;;;4.30;;
76818;SDS011;65772;51.096;17.006;2023-05-24T08:20:45;10.80;;;4.00;;
76818;SDS011;65772;51.096;17.006;2023-05-24T08:23:16;11.40;;;4.30;;
76818;SDS011;65772;51.096;17.006;2023-05-24T08:25:47;12.40;;;4.70;;
76818;SDS011;65772;51.096;17.006;2023-05-24T08:28:18;15.30;;;4.70;;
76818;SDS011;65772;51.096;17.006;2023-05-24T08:30:48;12.80;;;4.10;;
76818;SDS011;65772;51.096;17.006;2023-05-24T08:33:19;16.50;;;3.90;;
76818;SDS011;65772;51.096;17.006;2023-05-24T08:35:50;12.70;;;4.30;;
76818;SDS011;65772;51.096;17.006;2023-05-24T08:38:21;13.10;;;3.80;;
76818;SDS011;65772;51.096;17.006;2023-05-24T08:40:51;13.40;;;3.60;;
76818;SDS011;65772;51.096;17.006;2023-05-24T08:43:22;12.10;;;3.80;;
76818;SDS011;65772;51.096;17.006;2023-05-24T08:45:56;16.40;;;4.40;;
76818;SDS011;65772;51.096;17.006;2023-05-24T08:48:29;11.60;;;3.80;;
76818;SDS011;65772;51.096;17.006;2023-05-24T08:51:01;8.40;;;3.20;;
76818;SDS011;65772;51.096;17.006;2023-05-24T08:53:33;12.00;;;4.00;;
76818;SDS011;65772;51.096;17.006;2023-05-24T08:56:06;10.20;;;3.40;;
76818;SDS011;65772;51.096;17.006;2023-05-24T08:58:37;8.80;;;3.50;;
76818;SDS011;65772;51.096;17.006;2023-05-24T09:01:09;9.90;;;3.60;;
76818;SDS011;65772;51.096;17.006;2023-05-24T09:03:41;10.40;;;3.50;;
76818;SDS011;65772;51.096;17.006;2023-05-24T09:06:15;11.10;;;4.20;;
76818;SDS011;65772;51.096;17.006;2023-05-24T09:08:46;7.90;;;3.80;;
76818;SDS011;65772;51.096;17.006;2023-05-24T09:11:19;8.00;;;3.60;;
76818;SDS011;65772;51.096;17.006;2023-05-24T09:16:22;10.40;;;4.20;;
76818;SDS011;65772;51.096;17.006;2023-05-24T09:18:53;9.20;;;3.60;;
76818;SDS011;65772;51.096;17.006;2023-05-24T09:21:23;8.60;;;3.60;;
76818;SDS011;65772;51.096;17.006;2023-05-24T09:23:54;12.20;;;4.20;;
76818;SDS011;65772;51.096;17.006;2023-05-24T09:26:27;11.80;;;4.10;;
76818;SDS011;65772;51.096;17.006;2023-05-24T09:28:58;7.80;;;4.20;;
76818;SDS011;65772;51.096;17.006;2023-05-24T09:31:32;11.80;;;4.20;;
76818;SDS011;65772;51.096;17.006;2023-05-24T09:34:04;11.90;;;4.30;;
76818;SDS011;65772;51.096;17.006;2023-05-24T09:36:44;12.00;;;4.60;;
76818;SDS011;65772;51.096;17.006;2023-05-24T09:39:17;11.90;;;4.00;;
76818;SDS011;65772;51.096;17.006;2023-05-24T09:41:52;9.20;;;4.80;;
76818;SDS011;65772;51.096;17.006;2023-05-24T09:44:25;9.30;;;4.20;;
76818;SDS011;65772;51.096;17.006;2023-05-24T09:46:59;8.90;;;4.20;;
76818;SDS011;65772;51.096;17.006;2023-05-24T09:49:34;11.90;;;4.20;;
76818;SDS011;65772;51.096;17.006;2023-05-24T09:52:06;13.20;;;4.30;;
76818;SDS011;65772;51.096;17.006;2023-05-24T09:54:41;8.90;;;4.60;;
76818;SDS011;65772;51.096;17.006;2023-05-24T09:57:15;9.10;;;3.60;;
76818;SDS011;65772;51.096;17.006;2023-05-24T09:59:49;11.30;;;4.10;;
76818;SDS011;65772;51.096;17.006;2023-05-24T10:02:20;12.80;;;4.30;;
76818;SDS011;65772;51.096;17.006;2023-05-24T10:04:57;10.00;;;4.40;;
76818;SDS011;65772;51.096;17.006;2023-05-24T10:07:28;8.20;;;4.50;;
76818;SDS011;65772;51.096;17.006;2023-05-24T10:10:01;8.90;;;4.40;;
76818;SDS011;65772;51.096;17.006;2023-05-24T10:12:34;8.40;;;4.80;;
76818;SDS011;65772;51.096;17.006;2023-05-24T10:15:10;8.30;;;4.10;;
76818;SDS011;65772;51.096;17.006;2023-05-24T10:17:41;10.90;;;4.40;;
76818;SDS011;65772;51.096;17.006;2023-05-24T10:20:12;8.00;;;4.10;;
76818;SDS011;65772;51.096;17.006;2023-05-24T10:22:44;12.00;;;4.50;;
76818;SDS011;65772;51.096;17.006;2023-05-24T10:25:19;10.90;;;4.00;;
76818;SDS011;65772;51.096;17.006;2023-05-24T10:27:53;8.30;;;3.60;;
76818;SDS011;65772;51.096;17.006;2023-05-24T10:30:28;11.90;;;5.40;;
76818;SDS011;65772;51.096;17.006;2023-05-24T10:33:03;12.70;;;4.70;;
76818;SDS011;65772;51.096;17.006;2023-05-24T10:35:36;7.80;;;3.90;;
76818;SDS011;65772;51.096;17.006;2023-05-24T10:38:09;10.40;;;4.40;;
76818;SDS011;65772;51.096;17.006;2023-05-24T10:40:41;8.40;;;4.80;;
76818;SDS011;65772;51.096;17.006;2023-05-24T10:43:12;12.00;;;4.40;;
76818;SDS011;65772;51.096;17.006;2023-05-24T10:45:48;10.70;;;4.30;;
76818;SDS011;65772;51.096;17.006;2023-05-24T10:48:32;12.60;;;4.40;;
76818;SDS011;65772;51.096;17.006;2023-05-24T10:51:29;12.00;;;4.60;;
76818;SDS011;65772;51.096;17.006;2023-05-24T10:54:15;12.80;;;4.40;;
76818;SDS011;65772;51.096;17.006;2023-05-24T10:56:47;10.30;;;5.10;;
76818;SDS011;65772;51.096;17.006;2023-05-24T10:59:27;12.40;;;5.10;;
76818;SDS011;65772;51.096;17.006;2023-05-24T11:02:02;12.40;;;4.70;;
76818;SDS011;65772;51.096;17.006;2023-05-24T11:04:37;8.60;;;4.70;;
76818;SDS011;65772;51.096;17.006;2023-05-24T11:07:10;12.30;;;4.50;;
76818;SDS011;65772;51.096;17.006;2023-05-24T11:09:44;12.20;;;4.40;;
76818;SDS011;65772;51.096;17.006;2023-05-24T11:12:22;12.50;;;3.90;;
76818;SDS011;65772;51.096;17.006;2023-05-24T11:15:06;12.10;;;4.40;;
76818;SDS011;65772;51.096;17.006;2023-05-24T11:20:41;11.30;;;3.60;;
76818;SDS011;65772;51.096;17.006;2023-05-24T11:23:14;10.40;;;4.00;;
76818;SDS011;65772;51.096;17.006;2023-05-24T11:25:46;11.80;;;4.30;;
76818;SDS011;65772;51.096;17.006;2023-05-24T11:28:17;15.00;;;4.90;;
76818;SDS011;65772;51.096;17.006;2023-05-24T11:30:48;11.70;;;4.70;;
76818;SDS011;65772;51.096;17.006;2023-05-24T11:33:20;13.20;;;4.80;;
76818;SDS011;65772;51.096;17.006;2023-05-24T11:35:52;14.50;;;5.30;;
76818;SDS011;65772;51.096;17.006;2023-05-24T11:38:23;10.50;;;4.70;;
76818;SDS011;65772;51.096;17.006;2023-05-24T11:40:54;11.00;;;4.10;;
76818;SDS011;65772;51.096;17.006;2023-05-24T11:43:28;11.30;;;3.70;;
76818;SDS011;65772;51.096;17.006;2023-05-24T11:45:59;10.40;;;3.60;;
76818;SDS011;65772;51.096;17.006;2023-05-24T11:48:30;8.00;;;3.60;;
76818;SDS011;65772;51.096;17.006;2023-05-24T11:51:01;15.00;;;4.30;;
76818;SDS011;65772;51.096;17.006;2023-05-24T11:53:34;14.50;;;3.90;;
76818;SDS011;65772;51.096;17.006;2023-05-24T11:56:05;9.10;;;3.70;;
76818;SDS011;65772;51.096;17.006;2023-05-24T11:58:39;8.80;;;3.60;;
76818;SDS011;65772;51.096;17.006;2023-05-24T12:01:25;11.60;;;4.00;;
76818;SDS011;65772;51.096;17.006;2023-05-24T12:03:56;12.20;;;4.00;;
76818;SDS011;65772;51.096;17.006;2023-05-24T12:06:33;9.40;;;3.70;;
76818;SDS011;65772;51.096;17.006;2023-05-24T12:09:06;9.50;;;4.00;;
76818;SDS011;65772;51.096;17.006;2023-05-24T12:11:40;11.20;;;4.00;;
76818;SDS011;65772;51.096;17.006;2023-05-24T12:14:15;10.70;;;3.90;;
76818;SDS011;65772;51.096;17.006;2023-05-24T12:16:46;10.10;;;3.90;;
76818;SDS011;65772;51.096;17.006;2023-05-24T12:19:17;10.70;;;4.00;;
76818;SDS011;65772;51.096;17.006;2023-05-24T12:21:55;11.20;;;3.90;;
76818;SDS011;65772;51.096;17.006;2023-05-24T12:24:27;11.50;;;3.80;;
76818;SDS011;65772;51.096;17.006;2023-05-24T12:26:59;10.30;;;4.10;;
76818;SDS011;65772;51.096;17.006;2023-05-24T12:29:34;13.10;;;3.70;;
76818;SDS011;65772;51.096;17.006;2023-05-24T12:32:08;11.40;;;4.10;;
76818;SDS011;65772;51.096;17.006;2023-05-24T12:34:42;9.20;;;3.70;;
76818;SDS011;65772;51.096;17.006;2023-05-24T12:37:13;11.00;;;4.10;;
76818;SDS011;65772;51.096;17.006;2023-05-24T12:39:45;8.40;;;3.50;;
76818;SDS011;65772;51.096;17.006;2023-05-24T12:42:15;11.90;;;3.70;;
76818;SDS011;65772;51.096;17.006;2023-05-24T12:44:50;11.90;;;4.00;;
76818;SDS011;65772;51.096;17.006;2023-05-24T12:47:21;10.90;;;4.10;;
76818;SDS011;65772;51.096;17.006;2023-05-24T12:49:52;14.10;;;4.40;;
76818;SDS011;65772;51.096;17.006;2023-05-24T12:52:23;8.80;;;4.10;;
76818;SDS011;65772;51.096;17.006;2023-05-24T12:54:54;13.20;;;3.70;;
76818;SDS011;65772;51.096;17.006;2023-05-24T12:57:25;8.70;;;4.10;;
76818;SDS011;65772;51.096;17.006;2023-05-24T12:59:55;10.80;;;4.30;;
76818;SDS011;65772;51.096;17.006;2023-05-24T13:02:26;12.90;;;3.80;;
76818;SDS011;65772;51.096;17.006;2023-05-24T13:04:56;9.30;;;3.50;;
76818;SDS011;65772;51.096;17.006;2023-05-24T13:07:28;8.90;;;3.70;;
76818;SDS011;65772;51.096;17.006;2023-05-24T13:09:58;13.60;;;4.10;;
76818;SDS011;65772;51.096;17.006;2023-05-24T13:12:30;10.20;;;3.80;;
76818;SDS011;65772;51.096;17.006;2023-05-24T13:15:01;10.30;;;3.50;;
76818;SDS011;65772;51.096;17.006;2023-05-24T13:17:32;8.50;;;3.40;;
76818;SDS011;65772;51.096;17.006;2023-05-24T13:20:04;10.60;;;3.10;;
76818;SDS011;65772;51.096;17.006;2023-05-24T13:22:38;13.00;;;5.70;;
76818;SDS011;65772;51.096;17.006;2023-05-24T13:25:09;7.30;;;3.30;;
76818;SDS011;65772;51.096;17.006;2023-05-24T13:27:39;10.50;;;3.70;;
76818;SDS011;65772;51.096;17.006;2023-05-24T13:30:11;8.80;;;3.30;;
76818;SDS011;65772;51.096;17.006;2023-05-24T13:32:43;7.60;;;3.30;;
76818;SDS011;65772;51.096;17.006;2023-05-24T13:35:14;8.10;;;2.80;;
76818;SDS011;65772;51.096;17.006;2023-05-24T13:37:45;7.80;;;2.90;;
76818;SDS011;65772;51.096;17.006;2023-05-24T13:40:15;8.40;;;2.50;;
76818;SDS011;65772;51.096;17.006;2023-05-24T13:42:46;12.90;;;3.50;;
76818;SDS011;65772;51.096;17.006;2023-05-24T13:45:17;8.50;;;3.20;;
76818;SDS011;65772;51.096;17.006;2023-05-24T13:47:48;10.10;;;3.10;;
76818;SDS011;65772;51.096;17.006;2023-05-24T13:50:20;8.50;;;3.10;;
76818;SDS011;65772;51.096;17.006;2023-05-24T13:52:53;10.20;;;3.20;;
76818;SDS011;65772;51.096;17.006;2023-05-24T13:55:24;12.20;;;3.60;;
76818;SDS011;65772;51.096;17.006;2023-05-24T13:57:55;9.70;;;3.20;;
76818;SDS011;65772;51.096;17.006;2023-05-24T14:00:26;10.50;;;3.50;;
76818;SDS011;65772;51.096;17.006;2023-05-24T14:02:56;12.30;;;3.50;;
76818;SDS011;65772;51.096;17.006;2023-05-24T14:05:27;20.00;;;11.00;;
76818;SDS011;65772;51.096;17.006;2023-05-24T14:07:58;8.10;;;2.70;;
76818;SDS011;65772;51.096;17.006;2023-05-24T14:10:34;8.60;;;3.20;;
76818;SDS011;65772;51.096;17.006;2023-05-24T14:13:05;8.10;;;3.40;;
76818;SDS011;65772;51.096;17.006;2023-05-24T14:15:39;8.50;;;3.10;;
76818;SDS011;65772;51.096;17.006;2023-05-24T14:18:11;9.60;;;2.80;;
76818;SDS011;65772;51.096;17.006;2023-05-24T14:20:42;9.80;;;3.90;;
76818;SDS011;65772;51.096;17.006;2023-05-24T14:23:13;12.80;;;3.00;;
76818;SDS011;65772;51.096;17.006;2023-05-24T14:25:43;8.90;;;3.10;;
76818;SDS011;65772;51.096;17.006;2023-05-24T14:28:14;9.00;;;3.30;;
76818;SDS011;65772;51.096;17.006;2023-05-24T14:30:44;9.80;;;3.00;;
76818;SDS011;65772;51.096;17.006;2023-05-24T14:33:15;8.10;;;2.60;;
76818;SDS011;65772;51.096;17.006;2023-05-24T14:35:46;8.40;;;2.60;;
76818;SDS011;65772;51.096;17.006;2023-05-24T14:38:18;6.70;;;2.60;;
76818;SDS011;65772;51.096;17.006;2023-05-24T14:40:50;7.90;;;2.90;;
76818;SDS011;65772;51.096;17.006;2023-05-24T14:43:23;12.90;;;6.30;;
76818;SDS011;65772;51.096;17.006;2023-05-24T14:45:54;9.00;;;3.30;;
76818;SDS011;65772;51.096;17.006;2023-05-24T14:48:25;13.10;;;4.80;;
76818;SDS011;65772;51.096;17.006;2023-05-24T14:50:55;6.30;;;2.50;;
76818;SDS011;65772;51.096;17.006;2023-05-24T14:53:25;9.50;;;3.10;;
76818;SDS011;65772;51.096;17.006;2023-05-24T14:55:56;8.20;;;2.90;;
76818;SDS011;65772;51.096;17.006;2023-05-24T14:58:27;7.90;;;2.70;;
76818;SDS011;65772;51.096;17.006;2023-05-24T15:00:58;6.70;;;2.60;;
76818;SDS011;65772;51.096;17.006;2023-05-24T15:03:28;7.70;;;2.90;;
76818;SDS011;65772;51.096;17.006;2023-05-24T15:05:59;7.70;;;2.80;;
76818;SDS011;65772;51.096;17.006;2023-05-24T15:08:30;7.60;;;3.20;;
76818;SDS011;65772;51.096;17.006;2023-05-24T15:11:00;7.70;;;2.70;;